Virginia Beach, VA (23465)

2:51 PM EST on November 27, 2014 (GMT -0500)
Kempsville | Change Station
CLOSE
Current Station
Personal Weather Station
Location: Virginia Beach, VA
Elevation: 20 ft
Nearby Weather Stations

Elev 20 ft 36.80 °N, 76.19 °W | Updated 0 second ago

Rain
Rain
42.5 °F
Feels Like 42 °F
N
2.0
Wind Variable Wind from WNW
Gusts 4.0 mph

Today
High -- | Low -- °F
--% Chance of Precip.
Yesterday
High -- | Low -- °F
Precip. -- in
6:54 AM 4:49 PM
Waxing Crescent, 32% visible
Pressure 30.02 in
Visibility 5.0 miles
Clouds Scattered Clouds 1100 ft
Mostly Cloudy 1900 ft
Overcast 2800 ft
Windchill 42 °F
Dew Point 41 °F
Humidity 95%
Rainfall 0.15 in
Snow Depth Not available.
UV 1 out of 12
Pollen .10 out of 12
Air Quality Not available.
Flu Activity Not available.
SPECI KORF 271909Z AUTO 30004KT 5SM -RA BR SCT011 BKN019 OVC028 06/04 A3002 RMK AO2 P0002 T00560039 TSNO

More Conditions Fewer Conditions

Pressure 30.02 in
Visibility 5.0 miles
Clouds Scattered Clouds 1100 ft
Mostly Cloudy 1900 ft
Overcast 2800 ft
Windchill 42 °F
Dew Point 41 °F
Humidity 95%
Rainfall 0.15 in
Snow Depth Not available.
UV 1 out of 12
Pollen .10 out of 12
Air Quality Not available.
Flu Activity Not available.
SPECI KORF 271909Z AUTO 30004KT 5SM -RA BR SCT011 BKN019 OVC028 06/04 A3002 RMK AO2 P0002 T00560039 TSNO

More Conditions Fewer Conditions

10-Day Weather Forecast

Almanac

Astronomy

Nov. 27, 2014 Rise Set
Actual Time
Civil Twilight
Nautical Twilight
Astronomical Twilight
Moon
Length of Visible Light
Length of Day
Tomorrow will be .
, % of the Moon is Illuminated

Today's Extremes

State Highs State Lows

Community

WunderPhotos

Upload Photos

1,774,094 photos uploaded!

WunderBlogs® & News

Nearby

Air Quality

  Air Quality AQ Index Pollutant
Not available.

Snow Depth

Station Depth Elevation

Earthquake Activity

City Distance Mag. Time & Date
Minimum magnitude displayed is 2.5.

Coastal Water Temperatures

Place Temperature

Nearby Weather Stations